sensor_id;sensor_type;location;lat;lon;timestamp;P1;durP1;ratioP1;P2;durP2;ratioP2
9106;SDS011;4589;48.690;8.952;2022-08-05T00:00:04;3.33;;;3.13;;
9106;SDS011;4589;48.690;8.952;2022-08-05T00:02:31;3.20;;;2.90;;
9106;SDS011;4589;48.690;8.952;2022-08-05T00:04:56;3.97;;;3.67;;
9106;SDS011;4589;48.690;8.952;2022-08-05T00:07:23;4.10;;;3.30;;
9106;SDS011;4589;48.690;8.952;2022-08-05T00:09:49;3.77;;;3.00;;
9106;SDS011;4589;48.690;8.952;2022-08-05T00:12:15;3.43;;;3.13;;
9106;SDS011;4589;48.690;8.952;2022-08-05T00:14:41;3.20;;;2.90;;
9106;SDS011;4589;48.690;8.952;2022-08-05T00:17:06;3.10;;;2.90;;
9106;SDS011;4589;48.690;8.952;2022-08-05T00:19:32;3.43;;;3.13;;
9106;SDS011;4589;48.690;8.952;2022-08-05T00:21:58;4.03;;;3.07;;
9106;SDS011;4589;48.690;8.952;2022-08-05T00:24:24;3.53;;;3.33;;
9106;SDS011;4589;48.690;8.952;2022-08-05T00:26:50;3.40;;;3.10;;
9106;SDS011;4589;48.690;8.952;2022-08-05T00:29:16;3.23;;;3.00;;
9106;SDS011;4589;48.690;8.952;2022-08-05T00:31:42;7.07;;;3.27;;
9106;SDS011;4589;48.690;8.952;2022-08-05T00:34:07;2.90;;;2.70;;
9106;SDS011;4589;48.690;8.952;2022-08-05T00:36:33;2.80;;;2.60;;
9106;SDS011;4589;48.690;8.952;2022-08-05T00:38:59;3.17;;;2.87;;
9106;SDS011;4589;48.690;8.952;2022-08-05T00:43:54;3.03;;;2.83;;
9106;SDS011;4589;48.690;8.952;2022-08-05T00:46:20;3.27;;;2.97;;
9106;SDS011;4589;48.690;8.952;2022-08-05T00:48:45;3.30;;;2.90;;
9106;SDS011;4589;48.690;8.952;2022-08-05T00:51:11;4.70;;;3.10;;
9106;SDS011;4589;48.690;8.952;2022-08-05T00:53:37;3.83;;;3.00;;
9106;SDS011;4589;48.690;8.952;2022-08-05T00:56:03;3.53;;;3.23;;
9106;SDS011;4589;48.690;8.952;2022-08-05T00:58:30;3.40;;;3.10;;
9106;SDS011;4589;48.690;8.952;2022-08-05T01:00:56;3.90;;;3.40;;
9106;SDS011;4589;48.690;8.952;2022-08-05T01:03:22;3.73;;;3.40;;
9106;SDS011;4589;48.690;8.952;2022-08-05T01:05:51;4.23;;;3.40;;
9106;SDS011;4589;48.690;8.952;2022-08-05T01:08:17;3.70;;;3.37;;
9106;SDS011;4589;48.690;8.952;2022-08-05T01:10:44;5.03;;;4.50;;
9106;SDS011;4589;48.690;8.952;2022-08-05T01:13:28;3.83;;;3.00;;
9106;SDS011;4589;48.690;8.952;2022-08-05T01:16:01;3.47;;;3.17;;
9106;SDS011;4589;48.690;8.952;2022-08-05T01:18:32;3.57;;;3.27;;
9106;SDS011;4589;48.690;8.952;2022-08-05T01:24:08;3.97;;;3.37;;
9106;SDS011;4589;48.690;8.952;2022-08-05T01:27:00;3.47;;;2.80;;
9106;SDS011;4589;48.690;8.952;2022-08-05T01:29:35;3.97;;;2.97;;
9106;SDS011;4589;48.690;8.952;2022-08-05T01:32:05;5.13;;;3.30;;
9106;SDS011;4589;48.690;8.952;2022-08-05T01:34:35;4.23;;;3.77;;
9106;SDS011;4589;48.690;8.952;2022-08-05T01:37:17;3.80;;;3.50;;
9106;SDS011;4589;48.690;8.952;2022-08-05T01:39:46;6.50;;;3.50;;
9106;SDS011;4589;48.690;8.952;2022-08-05T01:42:15;4.90;;;2.90;;
9106;SDS011;4589;48.690;8.952;2022-08-05T01:44:44;3.60;;;3.30;;
9106;SDS011;4589;48.690;8.952;2022-08-05T01:47:11;4.50;;;2.97;;
9106;SDS011;4589;48.690;8.952;2022-08-05T01:49:41;3.37;;;3.07;;
9106;SDS011;4589;48.690;8.952;2022-08-05T01:52:08;3.80;;;3.07;;
9106;SDS011;4589;48.690;8.952;2022-08-05T01:54:39;5.20;;;3.17;;
9106;SDS011;4589;48.690;8.952;2022-08-05T01:57:08;3.07;;;2.77;;
9106;SDS011;4589;48.690;8.952;2022-08-05T01:59:35;3.93;;;2.90;;
9106;SDS011;4589;48.690;8.952;2022-08-05T02:02:03;7.37;;;3.80;;
9106;SDS011;4589;48.690;8.952;2022-08-05T02:04:31;4.00;;;3.23;;
9106;SDS011;4589;48.690;8.952;2022-08-05T02:07:00;3.87;;;3.50;;
9106;SDS011;4589;48.690;8.952;2022-08-05T02:09:26;8.27;;;3.50;;
9106;SDS011;4589;48.690;8.952;2022-08-05T02:12:04;4.87;;;3.10;;
9106;SDS011;4589;48.690;8.952;2022-08-05T02:14:38;5.83;;;3.87;;
9106;SDS011;4589;48.690;8.952;2022-08-05T02:17:16;4.40;;;3.47;;
9106;SDS011;4589;48.690;8.952;2022-08-05T02:19:50;4.00;;;3.40;;
9106;SDS011;4589;48.690;8.952;2022-08-05T02:22:30;3.70;;;3.30;;
9106;SDS011;4589;48.690;8.952;2022-08-05T02:25:05;6.33;;;3.70;;
9106;SDS011;4589;48.690;8.952;2022-08-05T02:27:40;3.67;;;3.03;;
9106;SDS011;4589;48.690;8.952;2022-08-05T02:30:08;3.37;;;3.07;;
9106;SDS011;4589;48.690;8.952;2022-08-05T02:32:35;3.90;;;3.50;;
9106;SDS011;4589;48.690;8.952;2022-08-05T02:35:04;6.43;;;2.90;;
9106;SDS011;4589;48.690;8.952;2022-08-05T02:37:34;4.20;;;3.37;;
9106;SDS011;4589;48.690;8.952;2022-08-05T02:40:02;3.50;;;3.10;;
9106;SDS011;4589;48.690;8.952;2022-08-05T02:42:30;4.20;;;3.37;;
9106;SDS011;4589;48.690;8.952;2022-08-05T02:44:57;4.90;;;3.00;;
9106;SDS011;4589;48.690;8.952;2022-08-05T02:47:25;5.00;;;2.93;;
9106;SDS011;4589;48.690;8.952;2022-08-05T02:49:52;3.73;;;3.10;;
9106;SDS011;4589;48.690;8.952;2022-08-05T02:52:18;4.87;;;3.07;;
9106;SDS011;4589;48.690;8.952;2022-08-05T02:54:44;4.33;;;3.57;;
9106;SDS011;4589;48.690;8.952;2022-08-05T02:57:12;6.13;;;3.77;;
9106;SDS011;4589;48.690;8.952;2022-08-05T02:59:41;4.73;;;3.43;;
9106;SDS011;4589;48.690;8.952;2022-08-05T03:02:08;4.00;;;3.20;;
9106;SDS011;4589;48.690;8.952;2022-08-05T03:04:34;6.20;;;3.60;;
9106;SDS011;4589;48.690;8.952;2022-08-05T03:07:01;9.27;;;3.97;;
9106;SDS011;4589;48.690;8.952;2022-08-05T03:09:27;4.60;;;4.20;;
9106;SDS011;4589;48.690;8.952;2022-08-05T03:11:53;4.70;;;3.70;;
9106;SDS011;4589;48.690;8.952;2022-08-05T03:14:19;5.53;;;3.00;;
9106;SDS011;4589;48.690;8.952;2022-08-05T03:16:45;3.80;;;2.97;;
9106;SDS011;4589;48.690;8.952;2022-08-05T03:19:10;5.43;;;3.70;;
9106;SDS011;4589;48.690;8.952;2022-08-05T03:21:36;4.83;;;3.47;;
9106;SDS011;4589;48.690;8.952;2022-08-05T03:24:02;7.07;;;4.37;;
9106;SDS011;4589;48.690;8.952;2022-08-05T03:26:28;3.63;;;3.10;;
9106;SDS011;4589;48.690;8.952;2022-08-05T03:28:54;9.80;;;3.47;;
9106;SDS011;4589;48.690;8.952;2022-08-05T03:31:20;5.97;;;3.83;;
9106;SDS011;4589;48.690;8.952;2022-08-05T03:33:46;11.40;;;3.97;;
9106;SDS011;4589;48.690;8.952;2022-08-05T03:36:12;7.43;;;4.23;;
9106;SDS011;4589;48.690;8.952;2022-08-05T03:38:39;5.53;;;3.57;;
9106;SDS011;4589;48.690;8.952;2022-08-05T03:41:08;3.97;;;3.57;;
9106;SDS011;4589;48.690;8.952;2022-08-05T03:43:34;4.60;;;3.90;;
9106;SDS011;4589;48.690;8.952;2022-08-05T03:46:00;4.63;;;4.00;;
9106;SDS011;4589;48.690;8.952;2022-08-05T03:48:26;4.17;;;3.80;;
9106;SDS011;4589;48.690;8.952;2022-08-05T03:53:54;5.70;;;4.20;;
9106;SDS011;4589;48.690;8.952;2022-08-05T03:56:39;5.37;;;4.10;;
9106;SDS011;4589;48.690;8.952;2022-08-05T03:59:08;5.90;;;4.47;;
9106;SDS011;4589;48.690;8.952;2022-08-05T04:01:39;4.67;;;4.00;;
9106;SDS011;4589;48.690;8.952;2022-08-05T04:04:09;5.03;;;4.00;;
9106;SDS011;4589;48.690;8.952;2022-08-05T04:06:37;5.87;;;4.23;;
9106;SDS011;4589;48.690;8.952;2022-08-05T04:09:04;4.70;;;4.13;;
9106;SDS011;4589;48.690;8.952;2022-08-05T04:11:31;4.80;;;4.07;;
9106;SDS011;4589;48.690;8.952;2022-08-05T04:13:59;5.80;;;3.60;;
9106;SDS011;4589;48.690;8.952;2022-08-05T04:16:24;5.93;;;3.93;;
9106;SDS011;4589;48.690;8.952;2022-08-05T04:18:51;6.00;;;3.63;;
9106;SDS011;4589;48.690;8.952;2022-08-05T04:21:17;4.60;;;4.00;;
9106;SDS011;4589;48.690;8.952;2022-08-05T04:23:43;4.40;;;3.80;;
9106;SDS011;4589;48.690;8.952;2022-08-05T04:26:09;4.40;;;3.77;;
9106;SDS011;4589;48.690;8.952;2022-08-05T04:28:35;5.40;;;4.03;;
9106;SDS011;4589;48.690;8.952;2022-08-05T04:31:01;4.67;;;3.63;;
9106;SDS011;4589;48.690;8.952;2022-08-05T04:33:27;4.70;;;3.93;;
9106;SDS011;4589;48.690;8.952;2022-08-05T04:35:53;5.27;;;4.50;;
9106;SDS011;4589;48.690;8.952;2022-08-05T04:38:19;5.03;;;4.57;;
9106;SDS011;4589;48.690;8.952;2022-08-05T04:40:45;4.40;;;3.70;;
9106;SDS011;4589;48.690;8.952;2022-08-05T04:43:11;4.03;;;3.30;;
9106;SDS011;4589;48.690;8.952;2022-08-05T04:45:36;5.70;;;3.53;;
9106;SDS011;4589;48.690;8.952;2022-08-05T04:48:03;3.93;;;3.63;;
9106;SDS011;4589;48.690;8.952;2022-08-05T04:50:39;4.97;;;4.20;;
9106;SDS011;4589;48.690;8.952;2022-08-05T04:53:08;6.43;;;5.53;;
9106;SDS011;4589;48.690;8.952;2022-08-05T04:55:38;6.20;;;4.70;;
9106;SDS011;4589;48.690;8.952;2022-08-05T04:58:06;8.43;;;7.10;;
9106;SDS011;4589;48.690;8.952;2022-08-05T05:00:34;8.57;;;5.90;;
9106;SDS011;4589;48.690;8.952;2022-08-05T05:03:00;7.00;;;4.93;;
9106;SDS011;4589;48.690;8.952;2022-08-05T05:05:27;9.37;;;5.67;;
9106;SDS011;4589;48.690;8.952;2022-08-05T05:08:04;7.40;;;3.80;;
9106;SDS011;4589;48.690;8.952;2022-08-05T05:10:32;7.23;;;3.83;;
9106;SDS011;4589;48.690;8.952;2022-08-05T05:13:03;6.13;;;4.50;;
9106;SDS011;4589;48.690;8.952;2022-08-05T05:15:28;7.50;;;4.20;;
9106;SDS011;4589;48.690;8.952;2022-08-05T05:17:54;5.40;;;4.20;;
9106;SDS011;4589;48.690;8.952;2022-08-05T05:20:19;4.80;;;4.40;;
9106;SDS011;4589;48.690;8.952;2022-08-05T05:22:45;4.07;;;3.67;;
9106;SDS011;4589;48.690;8.952;2022-08-05T05:25:11;4.10;;;3.80;;
9106;SDS011;4589;48.690;8.952;2022-08-05T05:27:38;7.17;;;4.13;;
9106;SDS011;4589;48.690;8.952;2022-08-05T05:30:04;6.03;;;4.20;;
9106;SDS011;4589;48.690;8.952;2022-08-05T05:32:30;11.43;;;4.33;;
9106;SDS011;4589;48.690;8.952;2022-08-05T05:34:56;7.00;;;4.50;;
9106;SDS011;4589;48.690;8.952;2022-08-05T05:37:22;5.97;;;4.20;;
9106;SDS011;4589;48.690;8.952;2022-08-05T05:39:48;10.07;;;4.17;;
9106;SDS011;4589;48.690;8.952;2022-08-05T05:42:14;6.63;;;4.37;;
9106;SDS011;4589;48.690;8.952;2022-08-05T05:44:39;7.27;;;4.10;;
9106;SDS011;4589;48.690;8.952;2022-08-05T05:47:05;5.37;;;4.83;;
9106;SDS011;4589;48.690;8.952;2022-08-05T05:49:31;5.77;;;4.57;;
9106;SDS011;4589;48.690;8.952;2022-08-05T05:51:57;17.63;;;5.20;;
9106;SDS011;4589;48.690;8.952;2022-08-05T05:54:22;5.63;;;5.03;;
9106;SDS011;4589;48.690;8.952;2022-08-05T05:56:48;7.83;;;5.10;;
9106;SDS011;4589;48.690;8.952;2022-08-05T05:59:14;13.07;;;4.97;;
9106;SDS011;4589;48.690;8.952;2022-08-05T06:01:41;8.23;;;4.87;;
9106;SDS011;4589;48.690;8.952;2022-08-05T06:04:07;9.13;;;5.30;;
9106;SDS011;4589;48.690;8.952;2022-08-05T06:06:34;10.67;;;5.50;;
9106;SDS011;4589;48.690;8.952;2022-08-05T06:09:01;10.70;;;4.87;;
9106;SDS011;4589;48.690;8.952;2022-08-05T06:11:27;13.27;;;4.80;;
9106;SDS011;4589;48.690;8.952;2022-08-05T06:13:53;9.33;;;4.20;;
9106;SDS011;4589;48.690;8.952;2022-08-05T06:16:19;8.97;;;5.27;;
9106;SDS011;4589;48.690;8.952;2022-08-05T06:18:45;6.90;;;4.20;;
9106;SDS011;4589;48.690;8.952;2022-08-05T06:21:11;4.80;;;4.30;;
9106;SDS011;4589;48.690;8.952;2022-08-05T06:23:36;6.93;;;4.53;;
9106;SDS011;4589;48.690;8.952;2022-08-05T06:26:02;8.80;;;4.77;;
9106;SDS011;4589;48.690;8.952;2022-08-05T06:28:28;6.00;;;4.10;;
9106;SDS011;4589;48.690;8.952;2022-08-05T06:30:53;10.07;;;4.03;;
9106;SDS011;4589;48.690;8.952;2022-08-05T06:33:19;4.37;;;3.70;;
9106;SDS011;4589;48.690;8.952;2022-08-05T06:35:45;17.07;;;4.83;;
9106;SDS011;4589;48.690;8.952;2022-08-05T06:38:11;6.70;;;3.83;;
9106;SDS011;4589;48.690;8.952;2022-08-05T06:40:37;4.13;;;3.73;;
9106;SDS011;4589;48.690;8.952;2022-08-05T06:43:03;4.80;;;3.50;;
9106;SDS011;4589;48.690;8.952;2022-08-05T06:45:29;12.20;;;3.70;;
9106;SDS011;4589;48.690;8.952;2022-08-05T06:47:55;4.53;;;3.70;;
9106;SDS011;4589;48.690;8.952;2022-08-05T06:50:21;6.50;;;3.30;;
9106;SDS011;4589;48.690;8.952;2022-08-05T06:52:46;6.20;;;3.00;;
9106;SDS011;4589;48.690;8.952;2022-08-05T06:55:12;6.57;;;2.40;;
9106;SDS011;4589;48.690;8.952;2022-08-05T06:57:38;6.00;;;2.87;;
9106;SDS011;4589;48.690;8.952;2022-08-05T07:00:04;3.13;;;2.40;;
9106;SDS011;4589;48.690;8.952;2022-08-05T07:02:30;4.37;;;2.73;;
9106;SDS011;4589;48.690;8.952;2022-08-05T07:04:56;3.13;;;2.60;;
9106;SDS011;4589;48.690;8.952;2022-08-05T07:07:21;7.23;;;2.67;;
9106;SDS011;4589;48.690;8.952;2022-08-05T07:09:47;4.13;;;2.57;;
9106;SDS011;4589;48.690;8.952;2022-08-05T07:12:12;6.20;;;1.87;;
9106;SDS011;4589;48.690;8.952;2022-08-05T07:14:58;2.33;;;2.17;;
9106;SDS011;4589;48.690;8.952;2022-08-05T07:17:42;5.80;;;2.30;;
9106;SDS011;4589;48.690;8.952;2022-08-05T07:20:08;2.97;;;1.87;;
9106;SDS011;4589;48.690;8.952;2022-08-05T07:22:34;1.90;;;1.80;;
9106;SDS011;4589;48.690;8.952;2022-08-05T07:25:00;5.77;;;2.53;;
9106;SDS011;4589;48.690;8.952;2022-08-05T07:27:26;7.57;;;2.63;;
9106;SDS011;4589;48.690;8.952;2022-08-05T07:29:52;4.60;;;2.00;;
9106;SDS011;4589;48.690;8.952;2022-08-05T07:32:18;9.83;;;2.37;;
9106;SDS011;4589;48.690;8.952;2022-08-05T07:34:44;5.70;;;2.00;;
9106;SDS011;4589;48.690;8.952;2022-08-05T07:37:10;8.60;;;2.00;;
9106;SDS011;4589;48.690;8.952;2022-08-05T07:39:35;5.00;;;2.40;;
9106;SDS011;4589;48.690;8.952;2022-08-05T07:42:01;5.23;;;2.33;;
9106;SDS011;4589;48.690;8.952;2022-08-05T07:44:26;3.07;;;2.00;;
9106;SDS011;4589;48.690;8.952;2022-08-05T07:46:52;9.40;;;2.73;;
9106;SDS011;4589;48.690;8.952;2022-08-05T07:49:18;1.90;;;1.80;;
9106;SDS011;4589;48.690;8.952;2022-08-05T07:51:44;2.60;;;2.33;;
9106;SDS011;4589;48.690;8.952;2022-08-05T07:54:10;2.20;;;2.00;;
9106;SDS011;4589;48.690;8.952;2022-08-05T07:56:36;2.73;;;2.10;;
9106;SDS011;4589;48.690;8.952;2022-08-05T07:59:02;2.20;;;2.00;;
9106;SDS011;4589;48.690;8.952;2022-08-05T08:01:28;2.60;;;2.40;;
9106;SDS011;4589;48.690;8.952;2022-08-05T08:03:54;4.20;;;2.10;;
9106;SDS011;4589;48.690;8.952;2022-08-05T08:06:19;2.93;;;2.63;;
9106;SDS011;4589;48.690;8.952;2022-08-05T08:08:45;2.73;;;2.10;;
9106;SDS011;4589;48.690;8.952;2022-08-05T08:11:11;3.17;;;1.90;;
9106;SDS011;4589;48.690;8.952;2022-08-05T08:13:39;2.10;;;1.90;;
9106;SDS011;4589;48.690;8.952;2022-08-05T08:16:05;2.17;;;2.00;;
9106;SDS011;4589;48.690;8.952;2022-08-05T08:18:31;3.00;;;2.20;;
9106;SDS011;4589;48.690;8.952;2022-08-05T08:20:57;8.13;;;2.40;;
9106;SDS011;4589;48.690;8.952;2022-08-05T08:23:23;4.03;;;2.40;;
9106;SDS011;4589;48.690;8.952;2022-08-05T08:25:49;1.70;;;1.60;;
9106;SDS011;4589;48.690;8.952;2022-08-05T08:28:15;2.90;;;2.10;;
9106;SDS011;4589;48.690;8.952;2022-08-05T08:30:40;4.07;;;1.70;;
9106;SDS011;4589;48.690;8.952;2022-08-05T08:33:07;4.13;;;2.10;;
9106;SDS011;4589;48.690;8.952;2022-08-05T08:35:34;3.23;;;2.00;;
9106;SDS011;4589;48.690;8.952;2022-08-05T08:38:00;2.30;;;2.10;;
9106;SDS011;4589;48.690;8.952;2022-08-05T08:40:26;2.57;;;2.20;;
9106;SDS011;4589;48.690;8.952;2022-08-05T08:42:52;2.67;;;2.03;;
9106;SDS011;4589;48.690;8.952;2022-08-05T08:45:19;5.17;;;2.13;;
9106;SDS011;4589;48.690;8.952;2022-08-05T08:47:46;2.87;;;2.27;;
9106;SDS011;4589;48.690;8.952;2022-08-05T08:50:13;5.80;;;2.43;;
9106;SDS011;4589;48.690;8.952;2022-08-05T08:52:41;4.73;;;2.03;;
9106;SDS011;4589;48.690;8.952;2022-08-05T08:55:13;6.77;;;2.30;;
9106;SDS011;4589;48.690;8.952;2022-08-05T08:57:39;2.27;;;2.00;;
9106;SDS011;4589;48.690;8.952;2022-08-05T09:00:05;1.83;;;1.73;;
9106;SDS011;4589;48.690;8.952;2022-08-05T09:02:33;5.00;;;2.60;;
9106;SDS011;4589;48.690;8.952;2022-08-05T09:04:59;2.00;;;1.60;;
9106;SDS011;4589;48.690;8.952;2022-08-05T09:07:25;7.33;;;2.17;;
9106;SDS011;4589;48.690;8.952;2022-08-05T09:09:51;2.80;;;1.87;;
9106;SDS011;4589;48.690;8.952;2022-08-05T09:12:17;8.07;;;2.43;;
9106;SDS011;4589;48.690;8.952;2022-08-05T09:14:43;2.60;;;1.90;;
9106;SDS011;4589;48.690;8.952;2022-08-05T09:17:09;2.03;;;1.90;;
9106;SDS011;4589;48.690;8.952;2022-08-05T09:19:36;2.90;;;1.60;;
9106;SDS011;4589;48.690;8.952;2022-08-05T09:22:03;4.40;;;1.87;;
9106;SDS011;4589;48.690;8.952;2022-08-05T09:24:28;2.27;;;2.07;;
9106;SDS011;4589;48.690;8.952;2022-08-05T09:26:55;2.37;;;1.70;;
9106;SDS011;4589;48.690;8.952;2022-08-05T09:29:41;1.87;;;1.73;;
9106;SDS011;4589;48.690;8.952;2022-08-05T09:32:11;8.17;;;2.27;;
9106;SDS011;4589;48.690;8.952;2022-08-05T09:34:52;2.00;;;1.50;;
9106;SDS011;4589;48.690;8.952;2022-08-05T09:37:20;1.60;;;1.50;;
9106;SDS011;4589;48.690;8.952;2022-08-05T09:39:48;2.00;;;1.80;;
9106;SDS011;4589;48.690;8.952;2022-08-05T09:42:14;2.47;;;2.27;;
9106;SDS011;4589;48.690;8.952;2022-08-05T09:44:43;2.07;;;1.60;;
9106;SDS011;4589;48.690;8.952;2022-08-05T09:47:14;12.50;;;2.33;;
9106;SDS011;4589;48.690;8.952;2022-08-05T09:49:43;1.60;;;1.50;;
9106;SDS011;4589;48.690;8.952;2022-08-05T09:52:31;2.03;;;1.80;;
9106;SDS011;4589;48.690;8.952;2022-08-05T09:54:58;2.13;;;1.93;;
9106;SDS011;4589;48.690;8.952;2022-08-05T09:57:37;1.87;;;1.77;;
9106;SDS011;4589;48.690;8.952;2022-08-05T10:00:11;3.50;;;2.23;;
9106;SDS011;4589;48.690;8.952;2022-08-05T10:02:43;2.83;;;1.93;;
9106;SDS011;4589;48.690;8.952;2022-08-05T10:05:11;2.90;;;2.47;;
9106;SDS011;4589;48.690;8.952;2022-08-05T10:07:55;5.00;;;2.00;;
9106;SDS011;4589;48.690;8.952;2022-08-05T10:10:23;2.40;;;1.60;;
9106;SDS011;4589;48.690;8.952;2022-08-05T10:12:50;2.03;;;1.60;;
9106;SDS011;4589;48.690;8.952;2022-08-05T10:15:21;4.23;;;1.80;;
9106;SDS011;4589;48.690;8.952;2022-08-05T10:18:13;1.87;;;1.77;;
9106;SDS011;4589;48.690;8.952;2022-08-05T10:20:48;2.83;;;1.80;;
9106;SDS011;4589;48.690;8.952;2022-08-05T10:23:18;1.93;;;1.73;;
9106;SDS011;4589;48.690;8.952;2022-08-05T10:25:46;1.60;;;1.50;;
9106;SDS011;4589;48.690;8.952;2022-08-05T10:28:12;2.97;;;1.53;;
9106;SDS011;4589;48.690;8.952;2022-08-05T10:30:38;3.63;;;1.80;;
9106;SDS011;4589;48.690;8.952;2022-08-05T10:33:04;2.13;;;1.70;;
9106;SDS011;4589;48.690;8.952;2022-08-05T10:35:33;1.97;;;1.67;;
9106;SDS011;4589;48.690;8.952;2022-08-05T10:37:59;1.87;;;1.77;;
9106;SDS011;4589;48.690;8.952;2022-08-05T10:40:29;1.90;;;1.70;;
9106;SDS011;4589;48.690;8.952;2022-08-05T10:43:00;1.83;;;1.73;;
9106;SDS011;4589;48.690;8.952;2022-08-05T10:45:32;1.93;;;1.83;;
9106;SDS011;4589;48.690;8.952;2022-08-05T10:48:12;1.83;;;1.73;;
9106;SDS011;4589;48.690;8.952;2022-08-05T10:50:59;4.43;;;1.77;;
9106;SDS011;4589;48.690;8.952;2022-08-05T10:56:18;1.80;;;1.70;;
9106;SDS011;4589;48.690;8.952;2022-08-05T10:58:49;1.70;;;1.53;;
9106;SDS011;4589;48.690;8.952;2022-08-05T11:01:30;2.13;;;1.90;;
9106;SDS011;4589;48.690;8.952;2022-08-05T11:04:00;1.70;;;1.60;;
9106;SDS011;4589;48.690;8.952;2022-08-05T11:06:33;2.00;;;1.80;;
9106;SDS011;4589;48.690;8.952;2022-08-05T11:09:10;2.10;;;1.93;;
9106;SDS011;4589;48.690;8.952;2022-08-05T11:11:40;2.03;;;1.77;;
9106;SDS011;4589;48.690;8.952;2022-08-05T11:14:08;2.87;;;1.87;;
9106;SDS011;4589;48.690;8.952;2022-08-05T11:16:35;6.87;;;2.00;;
9106;SDS011;4589;48.690;8.952;2022-08-05T11:19:23;3.10;;;2.03;;
9106;SDS011;4589;48.690;8.952;2022-08-05T11:21:51;2.13;;;1.93;;
9106;SDS011;4589;48.690;8.952;2022-08-05T11:24:18;6.17;;;2.10;;
9106;SDS011;4589;48.690;8.952;2022-08-05T11:26:45;2.83;;;2.07;;
9106;SDS011;4589;48.690;8.952;2022-08-05T11:29:32;3.30;;;2.27;;
9106;SDS011;4589;48.690;8.952;2022-08-05T11:34:49;5.40;;;2.23;;
9106;SDS011;4589;48.690;8.952;2022-08-05T11:37:39;6.13;;;2.03;;
9106;SDS011;4589;48.690;8.952;2022-08-05T11:40:18;8.40;;;1.93;;
9106;SDS011;4589;48.690;8.952;2022-08-05T11:42:45;3.40;;;2.00;;
9106;SDS011;4589;48.690;8.952;2022-08-05T11:45:11;4.90;;;2.60;;
9106;SDS011;4589;48.690;8.952;2022-08-05T11:47:36;2.13;;;1.70;;
9106;SDS011;4589;48.690;8.952;2022-08-05T11:50:03;2.33;;;2.13;;
9106;SDS011;4589;48.690;8.952;2022-08-05T11:52:29;2.70;;;1.70;;
9106;SDS011;4589;48.690;8.952;2022-08-05T11:54:56;2.57;;;2.20;;
9106;SDS011;4589;48.690;8.952;2022-08-05T11:57:26;1.97;;;1.87;;
9106;SDS011;4589;48.690;8.952;2022-08-05T11:59:55;2.70;;;1.90;;
9106;SDS011;4589;48.690;8.952;2022-08-05T12:02:25;2.13;;;1.93;;
9106;SDS011;4589;48.690;8.952;2022-08-05T12:04:52;2.20;;;1.90;;
9106;SDS011;4589;48.690;8.952;2022-08-05T12:07:18;2.17;;;1.97;;
9106;SDS011;4589;48.690;8.952;2022-08-05T12:09:48;3.20;;;2.03;;
9106;SDS011;4589;48.690;8.952;2022-08-05T12:12:21;2.43;;;1.87;;
9106;SDS011;4589;48.690;8.952;2022-08-05T12:14:47;2.20;;;2.00;;
9106;SDS011;4589;48.690;8.952;2022-08-05T12:17:13;3.73;;;2.10;;
9106;SDS011;4589;48.690;8.952;2022-08-05T12:19:47;2.20;;;2.10;;
9106;SDS011;4589;48.690;8.952;2022-08-05T12:22:13;2.60;;;2.10;;
9106;SDS011;4589;48.690;8.952;2022-08-05T12:24:44;2.30;;;2.03;;
9106;SDS011;4589;48.690;8.952;2022-08-05T12:27:18;2.00;;;1.90;;
9106;SDS011;4589;48.690;8.952;2022-08-05T12:32:42;2.60;;;2.40;;
9106;SDS011;4589;48.690;8.952;2022-08-05T12:35:10;3.03;;;1.93;;
9106;SDS011;4589;48.690;8.952;2022-08-05T12:37:39;2.13;;;2.03;;
9106;SDS011;4589;48.690;8.952;2022-08-05T12:40:07;2.30;;;2.10;;
9106;SDS011;4589;48.690;8.952;2022-08-05T12:42:34;2.33;;;2.13;;
9106;SDS011;4589;48.690;8.952;2022-08-05T12:45:06;2.50;;;2.20;;
9106;SDS011;4589;48.690;8.952;2022-08-05T12:47:34;2.03;;;1.93;;
9106;SDS011;4589;48.690;8.952;2022-08-05T12:50:10;3.10;;;2.53;;
9106;SDS011;4589;48.690;8.952;2022-08-05T12:52:37;2.53;;;2.33;;
9106;SDS011;4589;48.690;8.952;2022-08-05T12:55:23;2.10;;;2.00;;
9106;SDS011;4589;48.690;8.952;2022-08-05T12:57:53;2.50;;;2.20;;
9106;SDS011;4589;48.690;8.952;2022-08-05T13:00:21;2.43;;;2.23;;
9106;SDS011;4589;48.690;8.952;2022-08-05T13:02:47;2.70;;;2.17;;
9106;SDS011;4589;48.690;8.952;2022-08-05T13:05:13;4.23;;;2.73;;
9106;SDS011;4589;48.690;8.952;2022-08-05T13:07:40;2.00;;;1.90;;
9106;SDS011;4589;48.690;8.952;2022-08-05T13:10:11;2.67;;;2.30;;
9106;SDS011;4589;48.690;8.952;2022-08-05T13:12:39;2.47;;;2.30;;
9106;SDS011;4589;48.690;8.952;2022-08-05T13:15:08;3.50;;;2.50;;
9106;SDS011;4589;48.690;8.952;2022-08-05T13:17:35;2.90;;;2.53;;
9106;SDS011;4589;48.690;8.952;2022-08-05T13:22:39;2.80;;;2.60;;
9106;SDS011;4589;48.690;8.952;2022-08-05T13:25:10;2.60;;;2.40;;
9106;SDS011;4589;48.690;8.952;2022-08-05T13:27:42;2.73;;;2.53;;
9106;SDS011;4589;48.690;8.952;2022-08-05T13:30:16;4.07;;;2.20;;
9106;SDS011;4589;48.690;8.952;2022-08-05T13:32:43;2.63;;;2.30;;
9106;SDS011;4589;48.690;8.952;2022-08-05T13:35:13;2.87;;;2.50;;
9106;SDS011;4589;48.690;8.952;2022-08-05T13:37:39;2.50;;;2.40;;
9106;SDS011;4589;48.690;8.952;2022-08-05T13:40:06;2.93;;;2.70;;
9106;SDS011;4589;48.690;8.952;2022-08-05T13:42:32;3.40;;;3.20;;
9106;SDS011;4589;48.690;8.952;2022-08-05T13:44:58;2.60;;;2.40;;
9106;SDS011;4589;48.690;8.952;2022-08-05T13:47:24;2.40;;;2.17;;
9106;SDS011;4589;48.690;8.952;2022-08-05T13:49:50;3.70;;;2.60;;
9106;SDS011;4589;48.690;8.952;2022-08-05T13:52:21;2.53;;;2.33;;
9106;SDS011;4589;48.690;8.952;2022-08-05T13:54:50;2.93;;;2.30;;
9106;SDS011;4589;48.690;8.952;2022-08-05T13:57:16;2.60;;;2.40;;
9106;SDS011;4589;48.690;8.952;2022-08-05T13:59:41;2.47;;;2.27;;
9106;SDS011;4589;48.690;8.952;2022-08-05T14:02:09;2.10;;;1.97;;
9106;SDS011;4589;48.690;8.952;2022-08-05T14:04:37;2.60;;;2.40;;
9106;SDS011;4589;48.690;8.952;2022-08-05T14:07:24;2.60;;;2.33;;
9106;SDS011;4589;48.690;8.952;2022-08-05T14:09:51;13.97;;;3.00;;
9106;SDS011;4589;48.690;8.952;2022-08-05T14:12:17;5.97;;;2.60;;
9106;SDS011;4589;48.690;8.952;2022-08-05T14:14:43;10.83;;;3.40;;
9106;SDS011;4589;48.690;8.952;2022-08-05T14:17:09;10.03;;;2.80;;
9106;SDS011;4589;48.690;8.952;2022-08-05T14:19:35;6.97;;;2.87;;
9106;SDS011;4589;48.690;8.952;2022-08-05T14:22:01;7.67;;;3.57;;
9106;SDS011;4589;48.690;8.952;2022-08-05T14:24:27;13.63;;;3.57;;
9106;SDS011;4589;48.690;8.952;2022-08-05T14:26:53;4.23;;;2.30;;
9106;SDS011;4589;48.690;8.952;2022-08-05T14:29:19;5.50;;;2.80;;
9106;SDS011;4589;48.690;8.952;2022-08-05T14:31:44;3.60;;;2.50;;
9106;SDS011;4589;48.690;8.952;2022-08-05T14:34:10;2.83;;;2.63;;
9106;SDS011;4589;48.690;8.952;2022-08-05T14:36:36;5.23;;;2.73;;
9106;SDS011;4589;48.690;8.952;2022-08-05T14:39:02;2.20;;;2.00;;
9106;SDS011;4589;48.690;8.952;2022-08-05T14:41:30;3.50;;;2.83;;
9106;SDS011;4589;48.690;8.952;2022-08-05T14:43:55;3.90;;;2.30;;
9106;SDS011;4589;48.690;8.952;2022-08-05T14:46:22;3.37;;;2.87;;
9106;SDS011;4589;48.690;8.952;2022-08-05T14:48:48;6.93;;;2.87;;
9106;SDS011;4589;48.690;8.952;2022-08-05T14:51:14;7.10;;;2.80;;
9106;SDS011;4589;48.690;8.952;2022-08-05T14:53:40;2.80;;;2.60;;
9106;SDS011;4589;48.690;8.952;2022-08-05T14:56:06;3.23;;;2.60;;
9106;SDS011;4589;48.690;8.952;2022-08-05T14:58:31;3.77;;;2.87;;
9106;SDS011;4589;48.690;8.952;2022-08-05T15:00:57;3.67;;;2.70;;
9106;SDS011;4589;48.690;8.952;2022-08-05T15:03:23;2.90;;;2.60;;
9106;SDS011;4589;48.690;8.952;2022-08-05T15:05:48;4.20;;;3.10;;
9106;SDS011;4589;48.690;8.952;2022-08-05T15:08:14;2.80;;;2.60;;
9106;SDS011;4589;48.690;8.952;2022-08-05T15:10:40;2.90;;;2.50;;
9106;SDS011;4589;48.690;8.952;2022-08-05T15:13:07;4.40;;;2.87;;
9106;SDS011;4589;48.690;8.952;2022-08-05T15:15:33;3.47;;;2.87;;
9106;SDS011;4589;48.690;8.952;2022-08-05T15:17:59;2.83;;;2.50;;
9106;SDS011;4589;48.690;8.952;2022-08-05T15:20:25;3.90;;;3.03;;
9106;SDS011;4589;48.690;8.952;2022-08-05T15:22:51;3.00;;;2.77;;
9106;SDS011;4589;48.690;8.952;2022-08-05T15:25:17;3.30;;;3.10;;
9106;SDS011;4589;48.690;8.952;2022-08-05T15:27:43;9.00;;;3.17;;
9106;SDS011;4589;48.690;8.952;2022-08-05T15:30:09;4.10;;;3.70;;
9106;SDS011;4589;48.690;8.952;2022-08-05T15:32:36;3.77;;;3.37;;
9106;SDS011;4589;48.690;8.952;2022-08-05T15:35:02;4.50;;;3.10;;
9106;SDS011;4589;48.690;8.952;2022-08-05T15:37:27;3.77;;;3.47;;
9106;SDS011;4589;48.690;8.952;2022-08-05T15:39:53;4.33;;;3.90;;